Time;durP1;ratioP1;P1;durP2;ratioP2;P2;SDS_P1;SDS_P2;PMS_P1;PMS_P2;Temp;Humidity;BMP_temperature;BMP_pressure;BME280_temperature;BME280_humidity;BME280_pressure;Samples;Min_cycle;Max_cycle;Signal;HPM_P1;HPM_P2
2022/03/25 00:00:12;;;;;;;;;;;9.10;40.80;;;;;;6285284;22;20343;-87
2022/03/25 00:02:38;;;;;;;;;;;9.00;40.60;;;;;;6311966;22;19907;-88
2022/03/25 00:05:04;;;;;;;;;;;9.00;40.70;;;;;;6312368;22;19998;-89
2022/03/25 00:07:32;;;;;;;;;;;8.80;40.70;;;;;;6310307;22;20262;-88
2022/03/25 00:09:58;;;;;;;;;;;8.80;40.70;;;;;;6309964;22;19985;-89
2022/03/25 00:12:24;;;;;;;;;;;8.80;40.80;;;;;;6310686;22;19922;-87
2022/03/25 00:14:49;;;;;;;;;;;8.70;40.90;;;;;;6282737;22;19949;-88
2022/03/25 00:17:15;;;;;;;;;;;8.70;40.80;;;;;;6310389;22;19961;-88
2022/03/25 00:19:40;;;;;;;;;;;8.60;41.40;;;;;;6309744;22;20334;-88
2022/03/25 00:22:06;;;;;;;;;;;8.60;41.30;;;;;;6281792;22;20259;-88
2022/03/25 00:24:31;;;;;;;;;;;8.60;42.00;;;;;;6309525;22;19910;-87
2022/03/25 00:26:57;;;;;;;;;;;8.50;42.40;;;;;;6282488;22;19911;-88
2022/03/25 00:29:22;;;;;;;;;;;8.60;42.50;;;;;;6308352;22;19978;-87
2022/03/25 00:31:48;;;;;;;;;;;8.50;42.20;;;;;;6282104;22;19911;-88
2022/03/25 00:34:13;;;;;;;;;;;8.50;41.90;;;;;;6281947;22;19952;-88
2022/03/25 00:36:40;;;;;;;;;;;8.50;42.00;;;;;;6282076;22;19917;-87
2022/03/25 00:39:05;;;;;;;;;;;8.40;41.80;;;;;;6309730;22;19930;-88
2022/03/25 00:41:32;;;;;;;;;;;8.40;41.80;;;;;;6281616;22;19915;-88
2022/03/25 00:43:58;;;;;;;;;;;8.40;41.70;;;;;;6307832;22;19968;-88
2022/03/25 00:46:23;;;;;;;;;;;8.30;41.70;;;;;;6309830;22;19912;-87
2022/03/25 00:48:49;;;;;;;;;;;8.30;42.10;;;;;;6308215;22;20312;-88
2022/03/25 00:51:14;;;;;;;;;;;8.20;42.20;;;;;;6309981;22;19938;-87
2022/03/25 00:53:40;;;;;;;;;;;8.20;42.30;;;;;;6308215;22;19910;-89
2022/03/25 00:56:06;;;;;;;;;;;8.20;42.30;;;;;;6307290;22;19930;-88
2022/03/25 00:58:32;;;;;;;;;;;8.10;42.20;;;;;;6309068;22;20335;-87
2022/03/25 01:01:01;;;;;;;;;;;8.00;42.20;;;;;;6309620;22;19902;-88
2022/03/25 01:03:26;;;;;;;;;;;8.00;42.20;;;;;;6307879;22;19911;-87
2022/03/25 01:05:52;;;;;;;;;;;8.00;42.20;;;;;;6282494;22;20265;-87
2022/03/25 01:08:18;;;;;;;;;;;7.90;42.20;;;;;;6309997;22;19907;-88
2022/03/25 01:10:43;;;;;;;;;;;8.00;42.20;;;;;;6310243;22;20065;-88
2022/03/25 01:13:10;;;;;;;;;;;7.90;42.30;;;;;;6312031;22;19911;-87
2022/03/25 01:15:38;;;;;;;;;;;7.80;42.20;;;;;;6284020;22;19923;-87
2022/03/25 01:18:03;;;;;;;;;;;7.80;42.20;;;;;;6282898;22;20340;-87
2022/03/25 01:20:29;;;;;;;;;;;7.80;42.10;;;;;;6282608;22;19910;-87
2022/03/25 01:22:55;;;;;;;;;;;7.80;42.10;;;;;;6283613;22;19911;-87
2022/03/25 01:25:20;;;;;;;;;;;7.80;42.20;;;;;;6283013;22;20239;-87
2022/03/25 01:27:46;;;;;;;;;;;7.80;42.30;;;;;;6283386;22;20176;-89
2022/03/25 01:30:11;;;;;;;;;;;7.80;42.40;;;;;;6309793;22;19910;-87
2022/03/25 01:32:37;;;;;;;;;;;7.70;42.60;;;;;;6309353;22;19914;-88
2022/03/25 01:35:06;;;;;;;;;;;7.70;42.90;;;;;;6309855;22;20227;-88
2022/03/25 01:37:31;;;;;;;;;;;7.70;43.10;;;;;;6282169;22;20274;-87
2022/03/25 01:39:57;;;;;;;;;;;7.70;43.10;;;;;;6282096;22;19964;-87
2022/03/25 01:42:32;;;;;;;;;;;7.60;43.40;;;;;;6309308;22;19949;-88
2022/03/25 01:44:58;;;;;;;;;;;7.60;43.20;;;;;;6309527;22;19903;-88
2022/03/25 01:47:28;;;;;;;;;;;7.50;43.00;;;;;;6282478;22;19953;-88
2022/03/25 01:49:54;;;;;;;;;;;7.50;43.00;;;;;;6309576;22;19913;-88
2022/03/25 01:52:19;;;;;;;;;;;7.50;43.00;;;;;;6282546;22;20470;-88
2022/03/25 01:54:45;;;;;;;;;;;7.50;43.20;;;;;;6311699;22;19903;-88
2022/03/25 01:57:10;;;;;;;;;;;7.50;43.00;;;;;;6311173;22;20238;-87
2022/03/25 01:59:35;;;;;;;;;;;7.50;43.10;;;;;;6282977;22;19918;-87
2022/03/25 02:02:02;;;;;;;;;;;7.50;43.20;;;;;;6283373;22;19917;-87
2022/03/25 02:04:27;;;;;;;;;;;7.50;43.30;;;;;;6281928;22;19980;-88
2022/03/25 02:06:53;;;;;;;;;;;7.50;43.20;;;;;;6309624;22;19911;-87
2022/03/25 02:09:18;;;;;;;;;;;7.50;43.20;;;;;;6311234;22;20287;-88
2022/03/25 02:11:44;;;;;;;;;;;7.50;43.20;;;;;;6310033;22;19911;-88
2022/03/25 02:14:11;;;;;;;;;;;7.40;43.20;;;;;;6310351;22;19930;-87
2022/03/25 02:16:37;;;;;;;;;;;7.40;43.20;;;;;;6282016;22;19910;-87
2022/03/25 02:19:03;;;;;;;;;;;7.40;43.30;;;;;;6281858;22;19911;-88
2022/03/25 02:21:29;;;;;;;;;;;7.40;43.40;;;;;;6282240;22;19965;-88
2022/03/25 02:23:55;;;;;;;;;;;7.30;43.50;;;;;;6282517;22;19913;-87
2022/03/25 02:26:21;;;;;;;;;;;7.30;43.50;;;;;;6309246;22;19907;-87
2022/03/25 02:28:46;;;;;;;;;;;7.20;43.50;;;;;;6309831;22;19968;-87
2022/03/25 02:31:12;;;;;;;;;;;7.20;43.50;;;;;;6281670;22;19903;-88
2022/03/25 02:33:37;;;;;;;;;;;7.20;43.50;;;;;;6309276;22;19906;-87
2022/03/25 02:36:03;;;;;;;;;;;7.20;43.50;;;;;;6309080;22;19903;-88
2022/03/25 02:38:28;;;;;;;;;;;7.20;43.60;;;;;;6308821;22;19919;-87
2022/03/25 02:40:54;;;;;;;;;;;7.10;43.70;;;;;;6309402;22;19918;-87
2022/03/25 02:43:19;;;;;;;;;;;7.10;43.70;;;;;;6281331;22;19911;-87
2022/03/25 02:45:45;;;;;;;;;;;7.10;43.70;;;;;;6308169;22;19913;-87
2022/03/25 02:48:11;;;;;;;;;;;7.10;43.60;;;;;;6308861;22;20324;-88
2022/03/25 02:50:36;;;;;;;;;;;7.00;43.60;;;;;;6307586;22;19907;-86
2022/03/25 02:53:02;;;;;;;;;;;7.00;43.80;;;;;;6307615;22;19914;-89
2022/03/25 02:55:28;;;;;;;;;;;7.00;43.80;;;;;;6281627;22;19907;-87
2022/03/25 02:57:54;;;;;;;;;;;7.00;43.90;;;;;;6309230;22;19953;-87
2022/03/25 03:00:20;;;;;;;;;;;6.90;43.90;;;;;;6281465;22;19910;-87
2022/03/25 03:02:47;;;;;;;;;;;6.90;43.90;;;;;;6281684;22;19983;-88
2022/03/25 03:05:13;;;;;;;;;;;6.90;44.00;;;;;;6281737;22;20228;-88
2022/03/25 03:07:39;;;;;;;;;;;6.80;44.00;;;;;;6308812;22;19907;-87
2022/03/25 03:10:05;;;;;;;;;;;6.90;44.00;;;;;;6281142;22;19911;-88
2022/03/25 03:12:32;;;;;;;;;;;6.80;44.00;;;;;;6281188;22;19934;-86
2022/03/25 03:14:58;;;;;;;;;;;6.80;44.00;;;;;;6308783;22;19903;-88
2022/03/25 03:17:26;;;;;;;;;;;6.80;44.00;;;;;;6284343;22;20001;-87
2022/03/25 03:19:52;;;;;;;;;;;6.80;44.20;;;;;;6281636;22;20323;-87
2022/03/25 03:22:17;;;;;;;;;;;6.80;44.10;;;;;;6306549;22;19911;-88
2022/03/25 03:24:43;;;;;;;;;;;6.80;44.10;;;;;;6280557;22;20235;-88
2022/03/25 03:27:09;;;;;;;;;;;6.70;44.20;;;;;;6308995;22;19911;-87
2022/03/25 03:29:35;;;;;;;;;;;6.70;44.20;;;;;;6307225;22;19934;-86
2022/03/25 03:32:01;;;;;;;;;;;6.70;44.20;;;;;;6281596;22;19921;-87
2022/03/25 03:34:26;;;;;;;;;;;6.60;44.20;;;;;;6308785;22;19907;-88
2022/03/25 03:36:52;;;;;;;;;;;6.60;44.20;;;;;;6308892;22;19990;-87
2022/03/25 03:39:17;;;;;;;;;;;6.60;44.30;;;;;;6307138;22;19911;-87
2022/03/25 03:41:43;;;;;;;;;;;6.60;44.30;;;;;;6309166;22;19915;-87
2022/03/25 03:44:08;;;;;;;;;;;6.50;44.30;;;;;;6282451;22;19991;-87
2022/03/25 03:46:34;;;;;;;;;;;6.50;44.30;;;;;;6282668;22;19918;-87
2022/03/25 03:49:00;;;;;;;;;;;6.50;44.40;;;;;;6281971;22;20298;-87
2022/03/25 03:51:25;;;;;;;;;;;6.50;44.40;;;;;;6282097;22;19911;-87
2022/03/25 03:53:51;;;;;;;;;;;6.40;44.40;;;;;;6283672;22;19914;-87
2022/03/25 03:56:16;;;;;;;;;;;6.40;44.30;;;;;;6310174;22;19907;-87
2022/03/25 03:58:42;;;;;;;;;;;6.40;44.50;;;;;;6308385;22;20201;-88
2022/03/25 04:01:07;;;;;;;;;;;6.40;44.60;;;;;;6307003;22;19989;-86
2022/03/25 04:03:33;;;;;;;;;;;6.40;44.60;;;;;;6307079;22;19938;-88
2022/03/25 04:05:59;;;;;;;;;;;6.40;44.60;;;;;;6281764;22;19903;-87
2022/03/25 04:08:24;;;;;;;;;;;6.30;44.60;;;;;;6309550;22;19911;-87
2022/03/25 04:10:49;;;;;;;;;;;6.30;44.70;;;;;;6280887;22;19907;-88
2022/03/25 04:13:15;;;;;;;;;;;6.30;44.70;;;;;;6308810;22;19906;-88
2022/03/25 04:15:40;;;;;;;;;;;6.30;44.70;;;;;;6306836;22;19968;-87
2022/03/25 04:18:06;;;;;;;;;;;6.30;44.80;;;;;;6306916;22;20333;-87
2022/03/25 04:20:32;;;;;;;;;;;6.20;44.80;;;;;;6280949;22;19929;-87
2022/03/25 04:22:58;;;;;;;;;;;6.20;44.80;;;;;;6281105;22;19907;-87
2022/03/25 04:25:23;;;;;;;;;;;6.20;44.80;;;;;;6281217;22;19964;-88
2022/03/25 04:27:49;;;;;;;;;;;6.20;44.80;;;;;;6280590;22;20030;-86
2022/03/25 04:30:16;;;;;;;;;;;6.20;44.90;;;;;;6308290;22;19911;-87
2022/03/25 04:32:42;;;;;;;;;;;6.20;44.90;;;;;;6308565;22;19903;-87
2022/03/25 04:35:08;;;;;;;;;;;6.20;45.00;;;;;;6282056;22;19918;-87
2022/03/25 04:37:33;;;;;;;;;;;6.20;45.00;;;;;;6282894;22;19910;-88
2022/03/25 04:39:59;;;;;;;;;;;6.20;44.90;;;;;;6310850;22;19989;-87
2022/03/25 04:42:25;;;;;;;;;;;6.20;44.90;;;;;;6282003;22;20227;-87
2022/03/25 04:44:51;;;;;;;;;;;6.20;44.90;;;;;;6283824;22;19907;-87
2022/03/25 04:47:17;;;;;;;;;;;6.20;45.00;;;;;;6311980;22;19906;-85
2022/03/25 04:49:43;;;;;;;;;;;6.10;45.00;;;;;;6308774;22;20306;-87
2022/03/25 04:52:08;;;;;;;;;;;6.10;45.20;;;;;;6283645;22;19907;-87
2022/03/25 04:54:34;;;;;;;;;;;6.10;45.20;;;;;;6310513;22;20267;-86
2022/03/25 04:56:59;;;;;;;;;;;6.00;45.30;;;;;;6282622;22;19907;-86
2022/03/25 04:59:24;;;;;;;;;;;6.10;45.30;;;;;;6282196;22;19937;-87
2022/03/25 05:01:50;;;;;;;;;;;6.00;45.20;;;;;;6309847;22;19957;-88
2022/03/25 05:04:15;;;;;;;;;;;6.00;45.10;;;;;;6282336;22;19906;-87
2022/03/25 05:06:41;;;;;;;;;;;6.00;45.10;;;;;;6309412;22;19930;-87
2022/03/25 05:09:07;;;;;;;;;;;6.00;45.10;;;;;;6282571;22;19907;-86
2022/03/25 05:11:33;;;;;;;;;;;6.00;45.10;;;;;;6309965;22;19934;-87
2022/03/25 05:13:59;;;;;;;;;;;6.00;45.20;;;;;;6308317;22;19911;-87
2022/03/25 05:16:25;;;;;;;;;;;6.00;45.20;;;;;;6309869;22;19891;-87
2022/03/25 05:18:51;;;;;;;;;;;6.00;45.20;;;;;;6309100;22;19922;-88
2022/03/25 05:21:16;;;;;;;;;;;5.90;45.20;;;;;;6281206;22;19907;-88
2022/03/25 05:23:42;;;;;;;;;;;5.90;45.30;;;;;;6281507;22;20207;-88
2022/03/25 05:26:07;;;;;;;;;;;6.00;45.30;;;;;;6309337;22;19911;-88
2022/03/25 05:28:33;;;;;;;;;;;6.00;45.30;;;;;;6309397;22;19935;-88
2022/03/25 05:30:58;;;;;;;;;;;6.00;45.40;;;;;;6282809;22;19989;-88
2022/03/25 05:33:24;;;;;;;;;;;6.00;45.50;;;;;;6309905;22;19907;-88
2022/03/25 05:35:49;;;;;;;;;;;6.10;45.60;;;;;;6309589;22;19918;-87
2022/03/25 05:38:14;;;;;;;;;;;6.20;45.70;;;;;;6309181;22;19926;-86
2022/03/25 05:40:40;;;;;;;;;;;6.30;45.90;;;;;;6309583;22;19921;-87
2022/03/25 05:43:05;;;;;;;;;;;6.40;46.20;;;;;;6309404;22;19914;-87
2022/03/25 05:45:31;;;;;;;;;;;6.50;46.40;;;;;;6308983;22;19918;-86
2022/03/25 05:47:56;;;;;;;;;;;6.60;46.60;;;;;;6309812;22;19903;-87
2022/03/25 05:50:22;;;;;;;;;;;6.80;46.80;;;;;;6310009;22;20324;-86
2022/03/25 05:52:48;;;;;;;;;;;7.00;47.00;;;;;;6308737;22;19910;-87
2022/03/25 05:55:14;;;;;;;;;;;7.20;47.20;;;;;;6309695;22;19907;-88
2022/03/25 05:57:39;;;;;;;;;;;7.40;47.40;;;;;;6310529;22;19907;-87
2022/03/25 06:00:05;;;;;;;;;;;7.70;47.60;;;;;;6308925;22;19930;-87
2022/03/25 06:02:31;;;;;;;;;;;8.00;47.80;;;;;;6310061;22;19922;-87
2022/03/25 06:04:56;;;;;;;;;;;8.30;47.90;;;;;;6282898;22;19980;-87
2022/03/25 06:07:22;;;;;;;;;;;8.60;48.00;;;;;;6309406;22;20511;-87
2022/03/25 06:09:48;;;;;;;;;;;8.90;48.10;;;;;;6307313;22;19926;-87
2022/03/25 06:12:14;;;;;;;;;;;9.20;48.10;;;;;;6281572;22;19918;-86
2022/03/25 06:14:39;;;;;;;;;;;9.60;48.10;;;;;;6282443;22;19909;-87
2022/03/25 06:17:05;;;;;;;;;;;9.90;48.10;;;;;;6309731;22;19911;-87
2022/03/25 06:19:31;;;;;;;;;;;10.20;48.10;;;;;;6309715;22;20239;-86
2022/03/25 06:21:57;;;;;;;;;;;10.60;48.00;;;;;;6281728;22;19907;-88
2022/03/25 06:24:22;;;;;;;;;;;11.00;48.00;;;;;;6310046;22;19934;-86
2022/03/25 06:26:48;;;;;;;;;;;11.30;48.00;;;;;;6309952;22;19932;-87
2022/03/25 06:29:13;;;;;;;;;;;11.70;47.80;;;;;;6308832;22;19956;-87
2022/03/25 06:31:39;;;;;;;;;;;12.10;47.60;;;;;;6307844;22;19907;-87
2022/03/25 06:34:05;;;;;;;;;;;12.50;47.40;;;;;;6282371;22;19917;-87
2022/03/25 06:36:30;;;;;;;;;;;12.80;47.20;;;;;;6310482;22;19914;-87
2022/03/25 06:38:56;;;;;;;;;;;13.30;47.00;;;;;;6306872;22;19926;-88
2022/03/25 06:41:22;;;;;;;;;;;13.70;47.00;;;;;;6281697;22;20227;-87
2022/03/25 06:43:49;;;;;;;;;;;14.20;46.70;;;;;;6282346;22;19907;-87
2022/03/25 06:46:17;;;;;;;;;;;14.60;46.30;;;;;;6281841;22;19937;-87
2022/03/25 06:48:42;;;;;;;;;;;15.10;45.80;;;;;;6280484;22;19903;-88
2022/03/25 06:51:09;;;;;;;;;;;15.50;45.30;;;;;;6280061;22;19946;-88
2022/03/25 06:53:35;;;;;;;;;;;15.90;44.70;;;;;;6306318;22;20312;-87
2022/03/25 06:56:01;;;;;;;;;;;16.30;44.20;;;;;;6307512;22;19915;-87
2022/03/25 06:58:27;;;;;;;;;;;16.80;43.50;;;;;;6280881;22;19918;-88
2022/03/25 07:00:52;;;;;;;;;;;17.30;42.70;;;;;;6307711;22;19914;-87
2022/03/25 07:03:18;;;;;;;;;;;17.70;42.20;;;;;;6307584;22;19903;-89
2022/03/25 07:05:44;;;;;;;;;;;18.00;41.20;;;;;;6280127;22;20320;-87
2022/03/25 07:08:10;;;;;;;;;;;18.40;40.40;;;;;;6280574;22;19911;-88
2022/03/25 07:10:36;;;;;;;;;;;18.80;40.00;;;;;;6307910;22;19910;-87
2022/03/25 07:13:01;;;;;;;;;;;19.30;39.90;;;;;;6280089;22;19910;-87
2022/03/25 07:15:27;;;;;;;;;;;19.60;39.50;;;;;;6306924;22;19919;-87
2022/03/25 07:17:52;;;;;;;;;;;20.00;39.10;;;;;;6306872;22;19907;-88
2022/03/25 07:20:19;;;;;;;;;;;20.40;39.00;;;;;;6306325;22;19911;-88
2022/03/25 07:22:48;;;;;;;;;;;20.80;38.60;;;;;;6307119;22;19918;-88
2022/03/25 07:25:14;;;;;;;;;;;21.30;38.00;;;;;;6306855;22;19986;-87
2022/03/25 07:27:40;;;;;;;;;;;21.70;37.40;;;;;;6280033;22;20339;-88
2022/03/25 07:30:06;;;;;;;;;;;22.10;36.70;;;;;;6306862;22;19914;-88
2022/03/25 07:32:32;;;;;;;;;;;22.50;35.80;;;;;;6307368;22;19911;-89
2022/03/25 07:34:57;;;;;;;;;;;23.00;35.10;;;;;;6307083;22;19985;-89
2022/03/25 07:37:23;;;;;;;;;;;23.30;33.70;;;;;;6306434;22;19914;-88
2022/03/25 07:39:48;;;;;;;;;;;23.70;32.80;;;;;;6306185;22;19939;-89
2022/03/25 07:42:14;;;;;;;;;;;24.10;32.10;;;;;;6280086;22;19923;-88
2022/03/25 07:44:39;;;;;;;;;;;24.40;31.00;;;;;;6280534;22;19907;-88
2022/03/25 07:47:08;;;;;;;;;;;24.80;30.60;;;;;;6307995;22;20326;-88
2022/03/25 07:49:35;;;;;;;;;;;25.00;30.40;;;;;;6280192;22;20277;-89
2022/03/25 07:52:04;;;;;;;;;;;25.30;30.20;;;;;;6307486;22;19915;-88
2022/03/25 07:54:29;;;;;;;;;;;25.70;29.70;;;;;;6307707;22;19903;-89
2022/03/25 07:56:58;;;;;;;;;;;26.00;28.90;;;;;;6305732;22;19918;-88
2022/03/25 07:59:26;;;;;;;;;;;26.30;28.30;;;;;;6308131;22;19926;-88
2022/03/25 08:01:52;;;;;;;;;;;26.60;28.10;;;;;;6280172;22;20327;-89
2022/03/25 08:04:18;;;;;;;;;;;26.80;27.40;;;;;;6305531;22;19910;-88
2022/03/25 08:06:44;;;;;;;;;;;27.10;27.00;;;;;;6308408;22;20212;-88
2022/03/25 08:09:10;;;;;;;;;;;27.40;26.60;;;;;;6307758;22;19903;-89
2022/03/25 08:11:36;;;;;;;;;;;27.60;26.10;;;;;;6309389;22;19911;-89
2022/03/25 08:14:01;;;;;;;;;;;27.80;25.50;;;;;;6281474;22;19918;-89
2022/03/25 08:16:27;;;;;;;;;;;28.10;25.10;;;;;;6309356;22;19911;-89
2022/03/25 08:18:52;;;;;;;;;;;28.30;25.10;;;;;;6307878;22;19946;-88
2022/03/25 08:21:18;;;;;;;;;;;28.50;25.00;;;;;;6282719;22;19903;-88
2022/03/25 08:29:12;;;;;;;;;;;29.40;24.50;;;;;;6309561;22;20335;-89
2022/03/25 08:31:37;;;;;;;;;;;29.60;23.10;;;;;;6282007;22;19903;-89
2022/03/25 08:34:03;;;;;;;;;;;29.80;22.70;;;;;;6281792;22;19911;-88
2022/03/25 08:36:29;;;;;;;;;;;30.00;22.40;;;;;;6282688;22;19915;-89
2022/03/25 08:38:55;;;;;;;;;;;30.20;22.50;;;;;;6309906;22;20268;-89
2022/03/25 08:41:21;;;;;;;;;;;30.30;22.40;;;;;;6282762;22;19918;-88
2022/03/25 08:43:49;;;;;;;;;;;30.50;22.60;;;;;;6310372;22;19914;-88
2022/03/25 08:46:15;;;;;;;;;;;30.70;22.20;;;;;;6283804;22;19906;-88
2022/03/25 08:48:40;;;;;;;;;;;31.00;22.00;;;;;;6283047;22;19946;-89
2022/03/25 08:51:06;;;;;;;;;;;31.20;21.30;;;;;;6282970;22;19929;-88
2022/03/25 08:53:32;;;;;;;;;;;31.30;21.10;;;;;;6281574;22;19907;-88
2022/03/25 08:55:57;;;;;;;;;;;31.50;20.70;;;;;;6308108;22;19956;-88
2022/03/25 08:58:26;;;;;;;;;;;31.60;21.00;;;;;;6308093;22;19919;-89
2022/03/25 09:00:51;;;;;;;;;;;31.80;20.90;;;;;;6282392;22;19910;-90
2022/03/25 09:03:18;;;;;;;;;;;32.00;20.00;;;;;;6281716;22;19908;-89
2022/03/25 09:05:43;;;;;;;;;;;32.10;19.70;;;;;;6282497;22;19941;-89
2022/03/25 09:08:09;;;;;;;;;;;32.30;19.70;;;;;;6308036;22;20239;-89
2022/03/25 09:10:34;;;;;;;;;;;32.40;19.10;;;;;;6282120;22;19907;-89
2022/03/25 09:13:00;;;;;;;;;;;32.50;19.00;;;;;;6282300;22;19911;-90
2022/03/25 09:15:26;;;;;;;;;;;32.70;18.90;;;;;;6311470;22;19903;-89
2022/03/25 09:17:51;;;;;;;;;;;32.90;19.00;;;;;;6283924;22;19915;-88
2022/03/25 09:20:17;;;;;;;;;;;33.10;18.80;;;;;;6285174;22;19914;-90
2022/03/25 09:22:43;;;;;;;;;;;33.20;18.40;;;;;;6282506;22;19918;-89
2022/03/25 09:25:09;;;;;;;;;;;33.30;18.30;;;;;;6281815;22;20370;-89
2022/03/25 09:27:35;;;;;;;;;;;33.30;18.50;;;;;;6282022;22;19958;-89
2022/03/25 09:30:01;;;;;;;;;;;33.50;18.20;;;;;;6282278;22;19903;-88
2022/03/25 09:32:26;;;;;;;;;;;33.60;18.30;;;;;;6280952;22;19990;-89
2022/03/25 09:35:10;;;;;;;;;;;33.80;18.30;;;;;;6282566;22;19911;-89
2022/03/25 09:37:37;;;;;;;;;;;34.00;17.50;;;;;;6280834;22;19934;-88
2022/03/25 09:40:04;;;;;;;;;;;34.10;17.40;;;;;;6281938;22;20365;-88
2022/03/25 09:42:30;;;;;;;;;;;34.20;17.30;;;;;;6282255;22;19914;-87
2022/03/25 09:44:56;;;;;;;;;;;34.30;16.60;;;;;;6283397;22;19903;-88
2022/03/25 09:47:22;;;;;;;;;;;34.40;16.40;;;;;;6281830;22;19972;-90
2022/03/25 09:49:47;;;;;;;;;;;34.40;16.30;;;;;;6310379;22;19989;-89
2022/03/25 09:52:13;;;;;;;;;;;34.40;15.80;;;;;;6282375;22;19903;-89
2022/03/25 09:54:38;;;;;;;;;;;34.40;15.80;;;;;;6282959;22;19907;-89
2022/03/25 09:57:04;;;;;;;;;;;34.50;15.50;;;;;;6283172;22;19907;-90
2022/03/25 09:59:30;;;;;;;;;;;34.60;15.60;;;;;;6309304;22;19922;-88
2022/03/25 10:01:55;;;;;;;;;;;34.70;15.60;;;;;;6283813;22;19915;-89
2022/03/25 10:04:39;;;;;;;;;;;34.80;15.00;;;;;;6283092;22;19922;-89
2022/03/25 10:07:25;;;;;;;;;;;34.80;14.50;;;;;;6309271;22;19903;-89
2022/03/25 10:10:10;;;;;;;;;;;34.80;14.70;;;;;;6283634;22;20208;-88
2022/03/25 10:12:37;;;;;;;;;;;34.70;14.80;;;;;;6283192;22;19968;-89
2022/03/25 10:15:11;;;;;;;;;;;34.80;15.00;;;;;;6312658;22;19907;-88
2022/03/25 10:17:46;;;;;;;;;;;34.90;15.00;;;;;;6309339;22;19917;-89
2022/03/25 10:20:11;;;;;;;;;;;35.00;14.90;;;;;;6282298;22;19994;-88
2022/03/25 10:22:37;;;;;;;;;;;35.10;15.10;;;;;;6283640;22;20236;-88
2022/03/25 10:25:09;;;;;;;;;;;35.20;14.80;;;;;;6309879;22;19910;-89
2022/03/25 10:27:34;;;;;;;;;;;34.90;14.30;;;;;;6282043;22;19938;-88
2022/03/25 10:30:03;;;;;;;;;;;34.50;14.30;;;;;;6309637;22;20299;-89
2022/03/25 10:32:28;;;;;;;;;;;34.30;14.30;;;;;;6281690;22;20274;-89
2022/03/25 10:35:09;;;;;;;;;;;34.00;14.50;;;;;;6282671;22;19915;-89
2022/03/25 10:37:53;;;;;;;;;;;33.90;14.80;;;;;;6282262;22;19962;-89
2022/03/25 10:40:19;;;;;;;;;;;33.80;14.60;;;;;;6309387;22;19990;-88
2022/03/25 10:43:04;;;;;;;;;;;33.60;14.70;;;;;;6307158;22;19933;-88
2022/03/25 10:45:29;;;;;;;;;;;33.30;14.80;;;;;;6307408;22;19907;-89
2022/03/25 10:48:30;;;;;;;;;;;32.80;14.90;;;;;;6281754;22;19911;-89
2022/03/25 10:50:56;;;;;;;;;;;32.50;15.10;;;;;;6184513;23;19912;-89
2022/03/25 10:53:21;;;;;;;;;;;32.20;15.30;;;;;;6256584;22;20328;-89
2022/03/25 10:55:54;;;;;;;;;;;32.00;15.50;;;;;;6284550;22;19903;-89
2022/03/25 10:58:20;;;;;;;;;;;31.90;15.70;;;;;;6308533;22;19938;-89
2022/03/25 11:00:46;;;;;;;;;;;31.80;15.70;;;;;;6308670;22;20290;-88
2022/03/25 11:03:14;;;;;;;;;;;31.50;15.60;;;;;;6306827;22;19919;-90
2022/03/25 11:05:39;;;;;;;;;;;31.20;15.90;;;;;;6280102;22;20220;-89
2022/03/25 11:08:05;;;;;;;;;;;31.10;16.10;;;;;;6308860;22;19922;-88
2022/03/25 11:10:32;;;;;;;;;;;31.00;16.40;;;;;;6281822;22;19952;-88
2022/03/25 11:13:01;;;;;;;;;;;30.60;16.40;;;;;;6280475;22;22971;-89
2022/03/25 11:15:27;;;;;;;;;;;30.40;16.70;;;;;;6308413;22;19911;-88
2022/03/25 11:17:53;;;;;;;;;;;30.30;16.90;;;;;;6280687;22;19922;-88
2022/03/25 11:20:24;;;;;;;;;;;30.20;17.10;;;;;;6308588;22;19911;-88
2022/03/25 11:22:51;;;;;;;;;;;30.30;17.00;;;;;;6281266;22;19911;-88
2022/03/25 11:25:21;;;;;;;;;;;30.30;17.00;;;;;;6308880;22;19915;-89
2022/03/25 11:27:49;;;;;;;;;;;30.30;16.90;;;;;;6282174;22;20319;-88
2022/03/25 11:30:16;;;;;;;;;;;30.20;17.10;;;;;;6309479;22;19911;-87
2022/03/25 11:32:57;;;;;;;;;;;30.20;17.30;;;;;;6308297;22;19907;-88
2022/03/25 11:35:24;;;;;;;;;;;30.10;17.20;;;;;;6280895;22;19922;-88
2022/03/25 11:38:08;;;;;;;;;;;30.10;17.30;;;;;;6307969;22;19942;-88
2022/03/25 11:40:33;;;;;;;;;;;30.30;17.20;;;;;;6306977;22;19922;-89
2022/03/25 11:43:11;;;;;;;;;;;30.50;17.10;;;;;;6308444;22;19907;-89
2022/03/25 11:45:37;;;;;;;;;;;30.50;16.90;;;;;;6282011;22;19917;-89
2022/03/25 11:48:05;;;;;;;;;;;30.50;17.00;;;;;;6309941;22;19943;-89
2022/03/25 11:50:34;;;;;;;;;;;30.50;17.20;;;;;;6308620;22;19918;-88
2022/03/25 11:53:12;;;;;;;;;;;30.60;16.90;;;;;;6281924;22;19910;-89
2022/03/25 11:55:58;;;;;;;;;;;30.40;17.00;;;;;;6282922;22;20380;-88
2022/03/25 11:58:31;;;;;;;;;;;30.20;16.90;;;;;;6309109;22;20433;-88
2022/03/25 12:01:00;;;;;;;;;;;30.00;17.10;;;;;;6284030;22;20597;-88
2022/03/25 12:03:40;;;;;;;;;;;30.10;17.00;;;;;;6284910;22;20348;-89
2022/03/25 12:06:06;;;;;;;;;;;30.00;16.90;;;;;;6282536;22;19921;-87
2022/03/25 12:08:34;;;;;;;;;;;29.80;17.20;;;;;;6310058;22;19907;-88
2022/03/25 12:11:01;;;;;;;;;;;29.70;17.10;;;;;;6310223;22;19907;-87
2022/03/25 12:13:45;;;;;;;;;;;29.50;17.10;;;;;;6284311;22;20285;-88
2022/03/25 12:16:11;;;;;;;;;;;29.40;17.00;;;;;;6310076;22;19960;-89
2022/03/25 12:18:46;;;;;;;;;;;29.40;17.20;;;;;;6281529;22;19946;-89
2022/03/25 12:21:27;;;;;;;;;;;29.60;17.40;;;;;;6282339;22;19914;-88
2022/03/25 12:23:57;;;;;;;;;;;29.80;17.20;;;;;;6285504;22;20405;-89
2022/03/25 12:26:36;;;;;;;;;;;29.80;17.00;;;;;;6283629;22;19910;-88
2022/03/25 12:29:02;;;;;;;;;;;29.60;16.80;;;;;;6284998;22;19911;-88
2022/03/25 12:31:29;;;;;;;;;;;29.60;16.90;;;;;;6283202;22;19906;-88
2022/03/25 12:33:55;;;;;;;;;;;29.70;16.90;;;;;;6311097;22;19922;-87
2022/03/25 12:36:22;;;;;;;;;;;29.80;16.80;;;;;;6310453;22;20209;-89
2022/03/25 12:38:48;;;;;;;;;;;29.60;16.70;;;;;;6313118;22;19984;-88
2022/03/25 12:41:24;;;;;;;;;;;29.50;17.00;;;;;;6311292;22;19915;-88
2022/03/25 12:44:00;;;;;;;;;;;29.60;17.10;;;;;;6311477;22;20322;-88
2022/03/25 12:46:27;;;;;;;;;;;29.70;16.80;;;;;;6285722;22;19907;-88
2022/03/25 12:48:53;;;;;;;;;;;29.70;16.90;;;;;;6310471;22;19979;-88
2022/03/25 12:51:24;;;;;;;;;;;29.60;16.90;;;;;;6311747;22;19911;-87
2022/03/25 12:53:51;;;;;;;;;;;29.40;17.30;;;;;;6309478;22;20615;-89
2022/03/25 12:56:17;;;;;;;;;;;29.30;17.70;;;;;;6309686;22;19918;-88
2022/03/25 12:58:42;;;;;;;;;;;29.30;17.90;;;;;;6283691;22;20230;-89
2022/03/25 13:01:12;;;;;;;;;;;29.10;18.00;;;;;;6309438;22;19915;-90
2022/03/25 13:03:38;;;;;;;;;;;28.90;18.20;;;;;;6283758;22;19934;-88
2022/03/25 13:06:12;;;;;;;;;;;28.50;18.50;;;;;;6313866;22;19914;-88
2022/03/25 13:08:38;;;;;;;;;;;28.30;18.60;;;;;;6287580;22;19907;-88
2022/03/25 13:11:03;;;;;;;;;;;28.20;18.70;;;;;;6282399;22;19953;-89
2022/03/25 13:13:31;;;;;;;;;;;28.10;18.90;;;;;;6308725;22;19907;-89
2022/03/25 13:16:00;;;;;;;;;;;28.00;19.10;;;;;;6309843;22;19914;-89
2022/03/25 13:18:29;;;;;;;;;;;27.80;19.10;;;;;;6309590;22;19918;-89
2022/03/25 13:20:55;;;;;;;;;;;27.70;19.40;;;;;;6281901;22;19985;-89
2022/03/25 13:23:25;;;;;;;;;;;27.60;19.50;;;;;;6282366;22;19903;-88
2022/03/25 13:25:51;;;;;;;;;;;27.50;19.60;;;;;;6282388;22;19929;-88
2022/03/25 13:28:25;;;;;;;;;;;27.20;19.80;;;;;;6282640;22;19903;-89
2022/03/25 13:30:51;;;;;;;;;;;27.00;19.90;;;;;;6310158;22;19915;-89
2022/03/25 13:33:18;;;;;;;;;;;26.80;20.00;;;;;;6308302;22;20330;-89
2022/03/25 13:35:48;;;;;;;;;;;26.50;20.40;;;;;;6309421;22;19911;-89
2022/03/25 13:38:15;;;;;;;;;;;26.20;20.60;;;;;;6309416;22;19911;-89
2022/03/25 13:41:11;;;;;;;;;;;25.80;20.90;;;;;;6309388;22;19907;-89
2022/03/25 13:43:38;;;;;;;;;;;25.60;21.20;;;;;;6282274;22;20304;-88
2022/03/25 13:46:04;;;;;;;;;;;25.20;21.30;;;;;;6281957;22;19907;-90
2022/03/25 13:48:42;;;;;;;;;;;24.90;21.50;;;;;;6282012;22;19907;-89
2022/03/25 13:51:17;;;;;;;;;;;24.70;21.80;;;;;;6279970;22;19911;-89
2022/03/25 13:53:43;;;;;;;;;;;24.50;21.90;;;;;;6309389;22;19989;-89
2022/03/25 13:56:10;;;;;;;;;;;24.20;21.90;;;;;;6308857;22;19911;-89
2022/03/25 13:58:36;;;;;;;;;;;24.20;22.00;;;;;;6281282;22;19942;-88
2022/03/25 14:01:02;;;;;;;;;;;24.00;22.10;;;;;;6281048;22;19918;-91
2022/03/25 14:03:30;;;;;;;;;;;23.90;22.30;;;;;;6308953;22;19907;-89
2022/03/25 14:06:07;;;;;;;;;;;23.80;22.30;;;;;;6308367;22;20037;-90
2022/03/25 14:08:33;;;;;;;;;;;23.70;22.60;;;;;;6280303;22;20057;-89
2022/03/25 14:10:59;;;;;;;;;;;23.60;22.60;;;;;;6282238;22;19915;-88
2022/03/25 14:13:26;;;;;;;;;;;23.50;22.70;;;;;;6308815;22;19903;-89
2022/03/25 14:15:51;;;;;;;;;;;23.40;23.00;;;;;;6282178;22;19915;-88
2022/03/25 14:18:20;;;;;;;;;;;23.40;23.10;;;;;;6280870;22;19911;-88
2022/03/25 14:20:46;;;;;;;;;;;23.40;23.20;;;;;;6309423;22;20212;-89
2022/03/25 14:23:16;;;;;;;;;;;23.30;23.10;;;;;;6308936;22;19914;-89
2022/03/25 14:25:42;;;;;;;;;;;23.20;23.30;;;;;;6309899;22;19907;-89
2022/03/25 14:28:10;;;;;;;;;;;23.10;23.30;;;;;;6281892;22;19910;-88